sensor_id;sensor_type;location;lat;lon;timestamp;pressure;altitude;pressure_sealevel;temperature;humidity
21623;BME280;10973;46.706;12.340;2023-05-24T00:02:12;87373.81;;;14.33;61.19
21623;BME280;10973;46.706;12.340;2023-05-24T00:04:40;87376.47;;;14.33;61.22
21623;BME280;10973;46.706;12.340;2023-05-24T00:07:08;87366.22;;;14.31;61.22
21623;BME280;10973;46.706;12.340;2023-05-24T00:09:36;87365.09;;;14.32;61.18
21623;BME280;10973;46.706;12.340;2023-05-24T00:12:03;87364.34;;;14.32;61.26
21623;BME280;10973;46.706;12.340;2023-05-24T00:14:31;87360.53;;;14.29;60.94
21623;BME280;10973;46.706;12.340;2023-05-24T00:16:58;87355.25;;;14.29;61.05
21623;BME280;10973;46.706;12.340;2023-05-24T00:19:26;87357.91;;;14.29;60.89
21623;BME280;10973;46.706;12.340;2023-05-24T00:21:53;87351.13;;;14.24;60.99
21623;BME280;10973;46.706;12.340;2023-05-24T00:24:21;87349.63;;;14.23;60.96
21623;BME280;10973;46.706;12.340;2023-05-24T00:26:49;87351.56;;;14.19;60.75
21623;BME280;10973;46.706;12.340;2023-05-24T00:29:16;87348.91;;;14.16;60.75
21623;BME280;10973;46.706;12.340;2023-05-24T00:31:44;87345.16;;;14.13;60.85
21623;BME280;10973;46.706;12.340;2023-05-24T00:34:11;87348.97;;;14.09;60.60
21623;BME280;10973;46.706;12.340;2023-05-24T00:36:38;87349.78;;;14.06;60.59
21623;BME280;10973;46.706;12.340;2023-05-24T00:39:06;87347.84;;;14.06;60.37
21623;BME280;10973;46.706;12.340;2023-05-24T00:41:33;87338.44;;;14.02;60.72
21623;BME280;10973;46.706;12.340;2023-05-24T00:44:01;87340.72;;;14.00;60.75
21623;BME280;10973;46.706;12.340;2023-05-24T00:46:32;87340.72;;;14.00;60.81
21623;BME280;10973;46.706;12.340;2023-05-24T00:49:00;87346.06;;;13.96;60.79
21623;BME280;10973;46.706;12.340;2023-05-24T00:51:28;87337.75;;;13.94;60.76
21623;BME280;10973;46.706;12.340;2023-05-24T00:53:56;87346.47;;;13.91;60.61
21623;BME280;10973;46.706;12.340;2023-05-24T00:56:24;87349.16;;;13.88;60.77
21623;BME280;10973;46.706;12.340;2023-05-24T00:58:51;87348.41;;;13.87;60.85
21623;BME280;10973;46.706;12.340;2023-05-24T01:01:19;87344.63;;;13.85;60.78
21623;BME280;10973;46.706;12.340;2023-05-24T01:03:47;87350.69;;;13.85;60.78
21623;BME280;10973;46.706;12.340;2023-05-24T01:06:14;87344.63;;;13.85;60.93
21623;BME280;10973;46.706;12.340;2023-05-24T01:11:52;87348.44;;;13.80;61.23
21623;BME280;10973;46.706;12.340;2023-05-24T01:14:50;87336.34;;;13.79;60.92
21623;BME280;10973;46.706;12.340;2023-05-24T01:17:49;87332.59;;;13.73;61.25
21623;BME280;10973;46.706;12.340;2023-05-24T01:20:22;87326.91;;;13.75;61.42
21623;BME280;10973;46.706;12.340;2023-05-24T01:25:59;87330.69;;;13.77;61.39
21623;BME280;10973;46.706;12.340;2023-05-24T01:28:32;87330.31;;;13.79;61.40
21623;BME280;10973;46.706;12.340;2023-05-24T01:31:01;87330.69;;;13.77;61.41
21623;BME280;10973;46.706;12.340;2023-05-24T01:33:29;87324.25;;;13.78;61.63
21623;BME280;10973;46.706;12.340;2023-05-24T01:35:57;87331.03;;;13.79;61.52
21623;BME280;10973;46.706;12.340;2023-05-24T01:38:24;87327.25;;;13.77;61.55
21623;BME280;10973;46.706;12.340;2023-05-24T01:41:02;87331.03;;;13.79;61.75
21623;BME280;10973;46.706;12.340;2023-05-24T01:43:43;87331.03;;;13.79;61.66
21623;BME280;10973;46.706;12.340;2023-05-24T01:46:34;87325.00;;;13.79;61.82
21623;BME280;10973;46.706;12.340;2023-05-24T01:49:26;87327.66;;;13.79;61.68
21623;BME280;10973;46.706;12.340;2023-05-24T01:52:14;87320.84;;;13.78;61.74
21623;BME280;10973;46.706;12.340;2023-05-24T01:54:47;87330.31;;;13.79;61.68
21623;BME280;10973;46.706;12.340;2023-05-24T01:57:19;87326.19;;;13.74;61.68
21623;BME280;10973;46.706;12.340;2023-05-24T01:59:49;87330.31;;;13.75;61.78
21623;BME280;10973;46.706;12.340;2023-05-24T02:02:18;87328.78;;;13.78;61.77
21623;BME280;10973;46.706;12.340;2023-05-24T02:04:45;87324.25;;;13.75;61.99
21623;BME280;10973;46.706;12.340;2023-05-24T02:07:13;87328.44;;;13.72;61.65
21623;BME280;10973;46.706;12.340;2023-05-24T02:09:40;87322.03;;;13.70;62.02
21623;BME280;10973;46.706;12.340;2023-05-24T02:12:08;87323.13;;;13.72;61.55
21623;BME280;10973;46.706;12.340;2023-05-24T02:14:36;87324.28;;;13.71;61.59
21623;BME280;10973;46.706;12.340;2023-05-24T02:17:04;87325.06;;;13.68;61.84
21623;BME280;10973;46.706;12.340;2023-05-24T02:19:32;87315.63;;;13.67;61.82
21623;BME280;10973;46.706;12.340;2023-05-24T02:21:59;87321.28;;;13.66;61.79
21623;BME280;10973;46.706;12.340;2023-05-24T02:24:27;87312.94;;;13.71;61.69
21623;BME280;10973;46.706;12.340;2023-05-24T02:26:54;87314.09;;;13.70;61.63
21623;BME280;10973;46.706;12.340;2023-05-24T02:29:22;87318.28;;;13.67;61.70
21623;BME280;10973;46.706;12.340;2023-05-24T02:31:49;87323.59;;;13.64;61.84
21623;BME280;10973;46.706;12.340;2023-05-24T02:34:16;87325.47;;;13.67;61.74
21623;BME280;10973;46.706;12.340;2023-05-24T02:36:44;87320.56;;;13.65;61.69
21623;BME280;10973;46.706;12.340;2023-05-24T02:39:11;87317.16;;;13.65;61.55
21623;BME280;10973;46.706;12.340;2023-05-24T02:41:39;87320.56;;;13.65;61.59
21623;BME280;10973;46.706;12.340;2023-05-24T02:44:06;87315.63;;;13.64;61.95
21623;BME280;10973;46.706;12.340;2023-05-24T02:46:34;87308.44;;;13.64;62.03
21623;BME280;10973;46.706;12.340;2023-05-24T02:49:02;87304.28;;;13.63;62.09
21623;BME280;10973;46.706;12.340;2023-05-24T02:51:29;87302.78;;;13.62;61.96
21623;BME280;10973;46.706;12.340;2023-05-24T02:53:57;87302.78;;;13.62;61.95
21623;BME280;10973;46.706;12.340;2023-05-24T02:56:24;87302.03;;;13.62;62.06
21623;BME280;10973;46.706;12.340;2023-05-24T02:58:52;87306.19;;;13.63;61.92
21623;BME280;10973;46.706;12.340;2023-05-24T03:01:19;87297.13;;;13.60;62.14
21623;BME280;10973;46.706;12.340;2023-05-24T03:03:47;87302.44;;;13.60;62.16
21623;BME280;10973;46.706;12.340;2023-05-24T03:06:14;87295.63;;;13.59;62.10
21623;BME280;10973;46.706;12.340;2023-05-24T03:08:42;87295.25;;;13.61;62.33
21623;BME280;10973;46.706;12.340;2023-05-24T03:11:09;87297.91;;;13.61;62.28
21623;BME280;10973;46.706;12.340;2023-05-24T03:13:38;87293.34;;;13.61;62.32
21623;BME280;10973;46.706;12.340;2023-05-24T03:16:06;87298.66;;;13.57;62.26
21623;BME280;10973;46.706;12.340;2023-05-24T03:18:35;87295.25;;;13.57;62.06
21623;BME280;10973;46.706;12.340;2023-05-24T03:21:02;87291.47;;;13.58;62.28
21623;BME280;10973;46.706;12.340;2023-05-24T03:23:30;87286.91;;;13.58;62.31
21623;BME280;10973;46.706;12.340;2023-05-24T03:25:58;87296.03;;;13.54;62.61
21623;BME280;10973;46.706;12.340;2023-05-24T03:28:26;87305.88;;;13.53;62.40
21623;BME280;10973;46.706;12.340;2023-05-24T03:30:54;87299.84;;;13.49;62.43
21623;BME280;10973;46.706;12.340;2023-05-24T03:33:21;87292.25;;;13.55;62.25
21623;BME280;10973;46.706;12.340;2023-05-24T03:35:49;87294.50;;;13.56;62.19
21623;BME280;10973;46.706;12.340;2023-05-24T03:38:16;87291.13;;;13.56;62.23
21623;BME280;10973;46.706;12.340;2023-05-24T03:40:44;87292.66;;;13.53;62.41
21623;BME280;10973;46.706;12.340;2023-05-24T03:43:11;87296.03;;;13.54;62.54
21623;BME280;10973;46.706;12.340;2023-05-24T03:45:38;87298.72;;;13.50;62.24
21623;BME280;10973;46.706;12.340;2023-05-24T03:48:06;87299.47;;;13.51;62.29
21623;BME280;10973;46.706;12.340;2023-05-24T03:50:34;87306.66;;;13.50;62.42
21623;BME280;10973;46.706;12.340;2023-05-24T03:53:04;87303.66;;;13.48;62.62
21623;BME280;10973;46.706;12.340;2023-05-24T03:55:32;87302.50;;;13.49;62.75
21623;BME280;10973;46.706;12.340;2023-05-24T03:57:59;87299.47;;;13.47;62.89
21623;BME280;10973;46.706;12.340;2023-05-24T04:00:29;87296.84;;;13.47;62.96
21623;BME280;10973;46.706;12.340;2023-05-24T04:02:57;87303.25;;;13.50;62.74
21623;BME280;10973;46.706;12.340;2023-05-24T04:05:24;87307.78;;;13.49;63.09
21623;BME280;10973;46.706;12.340;2023-05-24T04:07:52;87301.75;;;13.49;63.12
21623;BME280;10973;46.706;12.340;2023-05-24T04:10:20;87307.78;;;13.53;63.15
21623;BME280;10973;46.706;12.340;2023-05-24T04:12:47;87310.06;;;13.51;62.96
21623;BME280;10973;46.706;12.340;2023-05-24T04:15:15;87313.84;;;13.50;62.98
21623;BME280;10973;46.706;12.340;2023-05-24T04:17:43;87305.91;;;13.50;62.87
21623;BME280;10973;46.706;12.340;2023-05-24T04:20:12;87306.66;;;13.50;62.95
21623;BME280;10973;46.706;12.340;2023-05-24T04:22:40;87309.31;;;13.50;63.17
21623;BME280;10973;46.706;12.340;2023-05-24T04:25:08;87304.00;;;13.50;63.23
21623;BME280;10973;46.706;12.340;2023-05-24T04:27:35;87309.25;;;13.54;63.05
21623;BME280;10973;46.706;12.340;2023-05-24T04:30:03;87308.53;;;13.53;63.34
21623;BME280;10973;46.706;12.340;2023-05-24T04:32:30;87310.78;;;13.55;63.51
21623;BME280;10973;46.706;12.340;2023-05-24T04:34:59;87320.22;;;13.59;63.55
21623;BME280;10973;46.706;12.340;2023-05-24T04:37:27;87312.63;;;13.62;63.44
21623;BME280;10973;46.706;12.340;2023-05-24T04:39:54;87310.75;;;13.62;63.49
21623;BME280;10973;46.706;12.340;2023-05-24T04:42:22;87310.75;;;13.58;63.36
21623;BME280;10973;46.706;12.340;2023-05-24T04:44:49;87313.41;;;13.58;63.28
21623;BME280;10973;46.706;12.340;2023-05-24T04:47:17;87310.75;;;13.58;63.34
21623;BME280;10973;46.706;12.340;2023-05-24T04:49:44;87314.50;;;13.61;63.15
21623;BME280;10973;46.706;12.340;2023-05-24T04:52:11;87313.44;;;13.55;63.26
21623;BME280;10973;46.706;12.340;2023-05-24T04:54:38;87321.34;;;13.58;63.49
21623;BME280;10973;46.706;12.340;2023-05-24T04:57:06;87314.50;;;13.61;63.41
21623;BME280;10973;46.706;12.340;2023-05-24T04:59:34;87320.16;;;13.63;63.56
21623;BME280;10973;46.706;12.340;2023-05-24T05:02:01;87319.81;;;13.65;63.51
21623;BME280;10973;46.706;12.340;2023-05-24T05:04:28;87313.75;;;13.64;63.40
21623;BME280;10973;46.706;12.340;2023-05-24T05:06:56;87316.75;;;13.66;63.57
21623;BME280;10973;46.706;12.340;2023-05-24T05:09:24;87317.91;;;13.62;63.62
21623;BME280;10973;46.706;12.340;2023-05-24T05:11:51;87315.69;;;13.60;63.64
21623;BME280;10973;46.706;12.340;2023-05-24T05:14:19;87320.97;;;13.60;63.80
21623;BME280;10973;46.706;12.340;2023-05-24T05:16:47;87322.47;;;13.61;63.94
21623;BME280;10973;46.706;12.340;2023-05-24T05:19:14;87327.38;;;13.63;63.95
21623;BME280;10973;46.706;12.340;2023-05-24T05:21:42;87327.00;;;13.64;64.02
21623;BME280;10973;46.706;12.340;2023-05-24T05:24:09;87331.16;;;13.65;64.13
21623;BME280;10973;46.706;12.340;2023-05-24T05:26:36;87331.50;;;13.67;64.02
21623;BME280;10973;46.706;12.340;2023-05-24T05:29:04;87333.00;;;13.68;63.94
21623;BME280;10973;46.706;12.340;2023-05-24T05:31:31;87323.94;;;13.69;64.22
21623;BME280;10973;46.706;12.340;2023-05-24T05:33:59;87328.84;;;13.71;64.39
21623;BME280;10973;46.706;12.340;2023-05-24T05:36:26;87336.75;;;13.74;64.33
21623;BME280;10973;46.706;12.340;2023-05-24T05:38:53;87328.81;;;13.74;64.21
21623;BME280;10973;46.706;12.340;2023-05-24T05:41:21;87328.03;;;13.77;64.36
21623;BME280;10973;46.706;12.340;2023-05-24T05:43:48;87331.03;;;13.79;64.52
21623;BME280;10973;46.706;12.340;2023-05-24T05:46:16;87326.50;;;13.80;64.51
21623;BME280;10973;46.706;12.340;2023-05-24T05:48:43;87330.25;;;13.82;64.47
21623;BME280;10973;46.706;12.340;2023-05-24T05:51:12;87324.56;;;13.87;64.33
21623;BME280;10973;46.706;12.340;2023-05-24T05:53:40;87321.88;;;13.91;64.50
21623;BME280;10973;46.706;12.340;2023-05-24T05:56:07;87323.00;;;13.93;64.12
21623;BME280;10973;46.706;12.340;2023-05-24T05:58:34;87330.16;;;13.96;64.17
21623;BME280;10973;46.706;12.340;2023-05-24T06:01:02;87316.13;;;13.99;63.86
21623;BME280;10973;46.706;12.340;2023-05-24T06:03:29;87327.41;;;14.07;63.63
21623;BME280;10973;46.706;12.340;2023-05-24T06:05:57;87322.81;;;14.14;63.50
21623;BME280;10973;46.706;12.340;2023-05-24T06:08:24;87325.84;;;14.16;63.69
21623;BME280;10973;46.706;12.340;2023-05-24T06:10:52;87316.31;;;14.22;63.53
21623;BME280;10973;46.706;12.340;2023-05-24T06:13:19;87319.31;;;14.24;63.79
21623;BME280;10973;46.706;12.340;2023-05-24T06:15:46;87316.66;;;14.28;63.45
21623;BME280;10973;46.706;12.340;2023-05-24T06:18:14;87312.84;;;14.33;63.30
21623;BME280;10973;46.706;12.340;2023-05-24T06:20:41;87321.50;;;14.37;63.43
21623;BME280;10973;46.706;12.340;2023-05-24T06:23:09;87318.03;;;14.43;63.49
21623;BME280;10973;46.706;12.340;2023-05-24T06:25:37;87318.38;;;14.49;63.78
21623;BME280;10973;46.706;12.340;2023-05-24T06:28:04;87316.78;;;14.55;63.95
21623;BME280;10973;46.706;12.340;2023-05-24T06:30:32;87312.94;;;14.63;64.17
21623;BME280;10973;46.706;12.340;2023-05-24T06:32:59;87324.59;;;14.69;64.38
21623;BME280;10973;46.706;12.340;2023-05-24T06:35:27;87320.38;;;14.75;64.41
21623;BME280;10973;46.706;12.340;2023-05-24T06:37:54;87317.28;;;14.80;64.31
21623;BME280;10973;46.706;12.340;2023-05-24T06:40:21;87320.66;;;14.84;64.31
21623;BME280;10973;46.706;12.340;2023-05-24T06:42:49;87325.94;;;14.84;63.52
21623;BME280;10973;46.706;12.340;2023-05-24T06:45:16;87324.81;;;14.85;63.04
21623;BME280;10973;46.706;12.340;2023-05-24T06:47:43;87320.66;;;14.84;63.00
21623;BME280;10973;46.706;12.340;2023-05-24T06:50:11;87327.47;;;14.85;62.85
21623;BME280;10973;46.706;12.340;2023-05-24T06:52:38;87325.56;;;14.85;62.94
21623;BME280;10973;46.706;12.340;2023-05-24T06:55:06;87333.53;;;14.85;63.03
21623;BME280;10973;46.706;12.340;2023-05-24T06:57:34;87332.41;;;14.83;63.14
21623;BME280;10973;46.706;12.340;2023-05-24T07:00:02;87329.72;;;14.86;63.20
21623;BME280;10973;46.706;12.340;2023-05-24T07:02:29;87336.53;;;14.87;63.35
21623;BME280;10973;46.706;12.340;2023-05-24T07:04:57;87325.56;;;14.85;63.74
21623;BME280;10973;46.706;12.340;2023-05-24T07:07:24;87333.88;;;14.87;64.07
21623;BME280;10973;46.706;12.340;2023-05-24T07:09:52;87334.63;;;14.88;64.67
21623;BME280;10973;46.706;12.340;2023-05-24T07:12:19;87334.63;;;14.88;64.62
21623;BME280;10973;46.706;12.340;2023-05-24T07:14:47;87336.13;;;14.89;64.47
21623;BME280;10973;46.706;12.340;2023-05-24T07:17:14;87327.81;;;14.87;64.37
21623;BME280;10973;46.706;12.340;2023-05-24T07:19:42;87328.59;;;14.87;64.17
21623;BME280;10973;46.706;12.340;2023-05-24T07:22:10;87344.03;;;14.92;64.00
21623;BME280;10973;46.706;12.340;2023-05-24T07:24:37;87340.59;;;14.95;63.98
21623;BME280;10973;46.706;12.340;2023-05-24T07:27:04;87331.88;;;14.98;64.15
21623;BME280;10973;46.706;12.340;2023-05-24T07:29:32;87332.16;;;15.04;64.03
21623;BME280;10973;46.706;12.340;2023-05-24T07:31:59;87324.25;;;15.00;64.49
21623;BME280;10973;46.706;12.340;2023-05-24T07:34:27;87322.28;;;15.08;64.41
21623;BME280;10973;46.706;12.340;2023-05-24T07:36:55;87325.22;;;15.14;64.06
21623;BME280;10973;46.706;12.340;2023-05-24T07:39:22;87322.84;;;15.23;63.65
21623;BME280;10973;46.706;12.340;2023-05-24T07:41:50;87327.72;;;15.28;64.01
21623;BME280;10973;46.706;12.340;2023-05-24T07:44:18;87321.22;;;15.32;63.68
21623;BME280;10973;46.706;12.340;2023-05-24T07:46:45;87327.22;;;15.36;63.72
21623;BME280;10973;46.706;12.340;2023-05-24T07:49:13;87324.16;;;15.38;63.39
21623;BME280;10973;46.706;12.340;2023-05-24T07:51:40;87328.69;;;15.44;63.28
21623;BME280;10973;46.706;12.340;2023-05-24T07:54:08;87331.75;;;15.39;63.39
21623;BME280;10973;46.706;12.340;2023-05-24T07:56:35;87326.78;;;15.41;63.48
21623;BME280;10973;46.706;12.340;2023-05-24T07:59:03;87324.16;;;15.38;63.68
21623;BME280;10973;46.706;12.340;2023-05-24T08:01:31;87322.63;;;15.40;63.47
21623;BME280;10973;46.706;12.340;2023-05-24T08:04:00;87324.53;;;15.40;63.76
21623;BME280;10973;46.706;12.340;2023-05-24T08:06:29;87325.69;;;15.39;63.77
21623;BME280;10973;46.706;12.340;2023-05-24T08:08:57;87330.66;;;15.33;64.03
21623;BME280;10973;46.706;12.340;2023-05-24T08:11:24;87334.13;;;15.30;64.09
21623;BME280;10973;46.706;12.340;2023-05-24T08:13:51;87335.63;;;15.31;63.92
21623;BME280;10973;46.706;12.340;2023-05-24T08:16:19;87339.81;;;15.32;64.20
21623;BME280;10973;46.706;12.340;2023-05-24T08:18:46;87347.78;;;15.29;64.63
21623;BME280;10973;46.706;12.340;2023-05-24T08:21:14;87348.69;;;15.19;64.88
21623;BME280;10973;46.706;12.340;2023-05-24T08:23:41;87345.34;;;15.15;64.76
21623;BME280;10973;46.706;12.340;2023-05-24T08:26:08;87348.72;;;15.15;64.69
21623;BME280;10973;46.706;12.340;2023-05-24T08:28:36;87353.75;;;15.06;64.75
21623;BME280;10973;46.706;12.340;2023-05-24T08:31:03;87353.72;;;15.10;64.65
21623;BME280;10973;46.706;12.340;2023-05-24T08:33:31;87348.06;;;15.08;64.58
21623;BME280;10973;46.706;12.340;2023-05-24T08:35:59;87349.97;;;15.07;64.73
21623;BME280;10973;46.706;12.340;2023-05-24T08:38:26;87353.72;;;15.10;64.64
21623;BME280;10973;46.706;12.340;2023-05-24T08:40:54;87359.44;;;15.08;64.63
21623;BME280;10973;46.706;12.340;2023-05-24T08:43:22;87353.41;;;15.04;64.69
21623;BME280;10973;46.706;12.340;2023-05-24T08:45:52;87350.00;;;15.04;64.73
21623;BME280;10973;46.706;12.340;2023-05-24T08:48:21;87348.84;;;15.05;64.84
21623;BME280;10973;46.706;12.340;2023-05-24T08:50:50;87354.94;;;15.01;65.11
21623;BME280;10973;46.706;12.340;2023-05-24T08:53:20;87350.38;;;15.02;65.04
21623;BME280;10973;46.706;12.340;2023-05-24T08:55:49;87346.59;;;15.03;65.08
21623;BME280;10973;46.706;12.340;2023-05-24T08:58:17;87350.75;;;15.04;64.71
21623;BME280;10973;46.706;12.340;2023-05-24T09:00:44;87354.22;;;14.97;64.84
21623;BME280;10973;46.706;12.340;2023-05-24T09:03:12;87351.56;;;15.01;64.88
21623;BME280;10973;46.706;12.340;2023-05-24T09:05:41;87346.16;;;15.08;65.02
21623;BME280;10973;46.706;12.340;2023-05-24T09:08:10;87341.50;;;15.16;65.14
21623;BME280;10973;46.706;12.340;2023-05-24T09:10:38;87347.50;;;15.23;64.93
21623;BME280;10973;46.706;12.340;2023-05-24T09:13:22;87345.53;;;15.27;64.72
21623;BME280;10973;46.706;12.340;2023-05-24T09:15:51;87335.63;;;15.31;64.39
21623;BME280;10973;46.706;12.340;2023-05-24T09:18:19;87337.16;;;15.32;64.49
21623;BME280;10973;46.706;12.340;2023-05-24T09:20:46;87335.19;;;15.36;64.59
21623;BME280;10973;46.706;12.340;2023-05-24T09:23:15;87326.44;;;15.39;64.59
21623;BME280;10973;46.706;12.340;2023-05-24T09:25:47;87335.47;;;15.45;64.50
21623;BME280;10973;46.706;12.340;2023-05-24T09:28:16;87332.44;;;15.47;63.87
21623;BME280;10973;46.706;12.340;2023-05-24T09:30:56;87331.59;;;15.53;63.92
21623;BME280;10973;46.706;12.340;2023-05-24T09:33:28;87324.75;;;15.56;64.11
21623;BME280;10973;46.706;12.340;2023-05-24T09:36:02;87327.28;;;15.63;63.74
21623;BME280;10973;46.706;12.340;2023-05-24T09:38:30;87329.94;;;15.63;63.63
21623;BME280;10973;46.706;12.340;2023-05-24T09:41:03;87326.81;;;15.72;63.68
21623;BME280;10973;46.706;12.340;2023-05-24T09:43:33;87325.13;;;15.81;64.00
21623;BME280;10973;46.706;12.340;2023-05-24T09:46:03;87309.94;;;15.82;63.98
21623;BME280;10973;46.706;12.340;2023-05-24T09:48:31;87316.25;;;15.91;63.98
21623;BME280;10973;46.706;12.340;2023-05-24T09:51:04;87311.88;;;16.04;63.84
21623;BME280;10973;46.706;12.340;2023-05-24T09:53:34;87312.88;;;16.14;63.42
21623;BME280;10973;46.706;12.340;2023-05-24T09:56:06;87307.31;;;16.28;62.69
21623;BME280;10973;46.706;12.340;2023-05-24T09:58:36;87309.38;;;16.40;61.97
21623;BME280;10973;46.706;12.340;2023-05-24T10:01:08;87311.50;;;16.52;61.22
21623;BME280;10973;46.706;12.340;2023-05-24T10:03:36;87297.41;;;16.55;59.98
21623;BME280;10973;46.706;12.340;2023-05-24T10:06:09;87301.03;;;16.65;59.37
21623;BME280;10973;46.706;12.340;2023-05-24T10:08:38;87301.53;;;16.79;59.16
21623;BME280;10973;46.706;12.340;2023-05-24T10:11:06;87292.72;;;16.82;58.07
21623;BME280;10973;46.706;12.340;2023-05-24T10:13:35;87289.47;;;16.94;57.33
21623;BME280;10973;46.706;12.340;2023-05-24T10:16:03;87285.78;;;17.08;56.47
21623;BME280;10973;46.706;12.340;2023-05-24T10:18:31;87285.91;;;17.21;57.35
21623;BME280;10973;46.706;12.340;2023-05-24T10:21:00;87290.28;;;17.31;57.71
21623;BME280;10973;46.706;12.340;2023-05-24T10:23:30;87282.88;;;17.38;57.60
21623;BME280;10973;46.706;12.340;2023-05-24T10:26:08;87285.34;;;17.49;57.06
21623;BME280;10973;46.706;12.340;2023-05-24T10:28:58;87285.22;;;17.56;56.02
21623;BME280;10973;46.706;12.340;2023-05-24T10:31:32;87282.13;;;17.57;55.60
21623;BME280;10973;46.706;12.340;2023-05-24T10:34:03;87281.75;;;17.75;55.91
21623;BME280;10973;46.706;12.340;2023-05-24T10:36:35;87276.34;;;17.95;55.88
21623;BME280;10973;46.706;12.340;2023-05-24T10:39:03;87274.59;;;18.04;53.54
21623;BME280;10973;46.706;12.340;2023-05-24T10:41:40;87271.34;;;18.13;54.48
21623;BME280;10973;46.706;12.340;2023-05-24T10:44:12;87265.53;;;18.34;56.90
21623;BME280;10973;46.706;12.340;2023-05-24T10:47:14;87259.53;;;18.46;55.13
21623;BME280;10973;46.706;12.340;2023-05-24T10:49:52;87265.63;;;18.46;53.46
21623;BME280;10973;46.706;12.340;2023-05-24T10:52:20;87264.00;;;18.65;53.95
21623;BME280;10973;46.706;12.340;2023-05-24T10:55:09;87257.06;;;18.68;53.60
21623;BME280;10973;46.706;12.340;2023-05-24T10:57:38;87255.34;;;18.61;53.66
21623;BME280;10973;46.706;12.340;2023-05-24T11:03:02;87249.25;;;18.44;54.04
21623;BME280;10973;46.706;12.340;2023-05-24T11:08:32;87249.03;;;18.23;54.13
21623;BME280;10973;46.706;12.340;2023-05-24T11:11:13;87244.94;;;18.02;54.09
21623;BME280;10973;46.706;12.340;2023-05-24T11:13:55;87248.25;;;17.90;53.72
21623;BME280;10973;46.706;12.340;2023-05-24T11:16:33;87248.34;;;17.87;54.32
21623;BME280;10973;46.706;12.340;2023-05-24T11:19:29;87241.25;;;17.64;54.46
21623;BME280;10973;46.706;12.340;2023-05-24T11:21:58;87252.16;;;17.53;54.28
21623;BME280;10973;46.706;12.340;2023-05-24T11:24:27;87243.66;;;17.39;54.65
21623;BME280;10973;46.706;12.340;2023-05-24T11:26:55;87249.22;;;17.28;55.05
21623;BME280;10973;46.706;12.340;2023-05-24T11:29:29;87247.38;;;17.25;54.81
21623;BME280;10973;46.706;12.340;2023-05-24T11:31:59;87244.94;;;16.75;54.93
21623;BME280;10973;46.706;12.340;2023-05-24T11:34:26;87241.00;;;16.64;54.92
21623;BME280;10973;46.706;12.340;2023-05-24T11:36:53;87245.69;;;16.56;55.51
21623;BME280;10973;46.706;12.340;2023-05-24T11:39:31;87247.53;;;16.59;56.21
21623;BME280;10973;46.706;12.340;2023-05-24T11:42:03;87254.84;;;16.55;56.96
21623;BME280;10973;46.706;12.340;2023-05-24T11:44:35;87253.16;;;16.41;58.01
21623;BME280;10973;46.706;12.340;2023-05-24T11:47:06;87239.78;;;16.45;58.17
21623;BME280;10973;46.706;12.340;2023-05-24T11:49:34;87232.25;;;16.40;58.78
21623;BME280;10973;46.706;12.340;2023-05-24T11:52:01;87227.38;;;16.15;58.93
21623;BME280;10973;46.706;12.340;2023-05-24T11:54:30;87220.16;;;16.16;59.34
21623;BME280;10973;46.706;12.340;2023-05-24T11:56:58;87231.00;;;16.25;59.16
21623;BME280;10973;46.706;12.340;2023-05-24T11:59:27;87222.16;;;16.31;59.47
21623;BME280;10973;46.706;12.340;2023-05-24T12:01:59;87227.22;;;16.46;58.67
21623;BME280;10973;46.706;12.340;2023-05-24T12:04:28;87224.47;;;16.53;59.10
21623;BME280;10973;46.706;12.340;2023-05-24T12:06:57;87217.72;;;16.68;58.11
21623;BME280;10973;46.706;12.340;2023-05-24T12:09:25;87232.59;;;16.85;58.54
21623;BME280;10973;46.706;12.340;2023-05-24T12:11:54;87226.72;;;16.93;58.79
21623;BME280;10973;46.706;12.340;2023-05-24T12:14:32;87233.34;;;17.05;57.72
21623;BME280;10973;46.706;12.340;2023-05-24T12:17:01;87237.28;;;17.17;56.92
21623;BME280;10973;46.706;12.340;2023-05-24T12:19:31;87243.47;;;17.30;57.18
21623;BME280;10973;46.706;12.340;2023-05-24T12:22:04;87248.56;;;17.40;56.25
21623;BME280;10973;46.706;12.340;2023-05-24T12:24:34;87249.53;;;17.50;55.28
21623;BME280;10973;46.706;12.340;2023-05-24T12:27:03;87243.44;;;17.49;54.66
21623;BME280;10973;46.706;12.340;2023-05-24T12:29:39;87244.56;;;17.52;54.70
21623;BME280;10973;46.706;12.340;2023-05-24T12:32:11;87253.91;;;17.60;54.25
21623;BME280;10973;46.706;12.340;2023-05-24T12:34:41;87252.72;;;17.61;53.82
21623;BME280;10973;46.706;12.340;2023-05-24T12:37:11;87250.91;;;17.58;54.80
21623;BME280;10973;46.706;12.340;2023-05-24T12:39:42;87249.66;;;17.62;54.55
21623;BME280;10973;46.706;12.340;2023-05-24T12:42:11;87253.00;;;17.66;54.49
21623;BME280;10973;46.706;12.340;2023-05-24T12:44:39;87258.84;;;17.77;53.21
21623;BME280;10973;46.706;12.340;2023-05-24T12:47:07;87254.78;;;17.89;54.24
21623;BME280;10973;46.706;12.340;2023-05-24T12:49:35;87253.09;;;17.95;54.46
21623;BME280;10973;46.706;12.340;2023-05-24T12:52:07;87255.00;;;18.27;53.80
21623;BME280;10973;46.706;12.340;2023-05-24T12:54:34;87252.75;;;18.41;52.82
21623;BME280;10973;46.706;12.340;2023-05-24T12:57:03;87253.09;;;18.43;52.67
21623;BME280;10973;46.706;12.340;2023-05-24T12:59:30;87253.44;;;18.29;51.62
21623;BME280;10973;46.706;12.340;2023-05-24T13:01:57;87259.38;;;18.21;51.95
21623;BME280;10973;46.706;12.340;2023-05-24T13:04:25;87262.53;;;18.00;52.56
21623;BME280;10973;46.706;12.340;2023-05-24T13:06:52;87260.09;;;17.89;53.01
21623;BME280;10973;46.706;12.340;2023-05-24T13:09:20;87263.38;;;17.61;51.64
21623;BME280;10973;46.706;12.340;2023-05-24T13:11:48;87253.38;;;17.49;52.58
21623;BME280;10973;46.706;12.340;2023-05-24T13:14:16;87266.50;;;17.40;53.18